^^
TXWeather Station Historical Data
Daily Summary for January 27, 2022 Units:  English    Metric   Both
Daily Weekly Monthly Yearly Custom
  High: Low: Average:
Temperature: 63.0 °F 40.0 °F 51.3 °F
Dew Point: 44.0 °F 31.0 °F 37.6 °F
Humidity: 73% 46% 60%
Wind Speed: 13mph 0mph 4.1mph
Wind Gust: 13mph - -
Wind- - East
Pressure: 30.4 in 30.2 in -
Precipitation: 0.000 in    
Historical Graphs
 
 
Tabular Data for January 27, 2022
Time Temperature Dew Point Pressure Wind Wind Speed Wind Gust Humidity Rainfall Rate (Hourly) solar
00:04 46.0 °F 34.0 °F 30.3 in East 3 mph 3 mph 62% 0.000 in 0.00 W/m2
00:09 46.0 °F 34.0 °F 30.4 in ENE 3 mph 4 mph 62% 0.000 in 0.00 W/m2
00:14 46.0 °F 33.0 °F 30.4 in East 3 mph 3 mph 62% 0.000 in 0.00 W/m2
00:19 46.0 °F 33.0 °F 30.4 in ESE 2 mph 2 mph 62% 0.000 in 0.00 W/m2
00:24 46.0 °F 33.0 °F 30.4 in ESE 3 mph 3 mph 62% 0.000 in 0.00 W/m2
00:29 46.0 °F 33.0 °F 30.4 in East 2 mph 3 mph 62% 0.000 in 0.00 W/m2
00:34 46.0 °F 33.0 °F 30.4 in East 2 mph 2 mph 62% 0.000 in 0.00 W/m2
00:39 46.0 °F 33.0 °F 30.4 in East 1 mph 3 mph 62% 0.000 in 0.00 W/m2
00:44 46.0 °F 33.0 °F 30.4 in East 2 mph 2 mph 62% 0.000 in 0.00 W/m2
00:49 46.0 °F 33.0 °F 30.4 in East 2 mph 2 mph 62% 0.000 in 0.00 W/m2
00:54 46.0 °F 33.0 °F 30.4 in East 4 mph 4 mph 62% 0.000 in 0.00 W/m2
00:59 46.0 °F 33.0 °F 30.3 in ESE 4 mph 6 mph 62% 0.000 in 0.00 W/m2
01:04 46.0 °F 33.0 °F 30.3 in East 4 mph 4 mph 62% 0.000 in 0.00 W/m2
01:09 46.0 °F 34.0 °F 30.3 in ESE 4 mph 4 mph 63% 0.000 in 0.00 W/m2
01:14 45.0 °F 33.0 °F 30.3 in SE 5 mph 5 mph 63% 0.000 in 0.00 W/m2
01:19 45.0 °F 33.0 °F 30.3 in SE 4 mph 5 mph 63% 0.000 in 0.00 W/m2
01:24 45.0 °F 33.0 °F 30.3 in ESE 5 mph 5 mph 63% 0.000 in 0.00 W/m2
01:29 45.0 °F 33.0 °F 30.3 in ESE 5 mph 6 mph 62% 0.000 in 0.00 W/m2
01:34 45.0 °F 33.0 °F 30.3 in ESE 4 mph 6 mph 62% 0.000 in 0.00 W/m2
01:39 45.0 °F 33.0 °F 30.3 in SE 4 mph 4 mph 63% 0.000 in 0.00 W/m2
01:44 44.0 °F 33.0 °F 30.3 in ESE 6 mph 6 mph 63% 0.000 in 0.00 W/m2
01:49 44.0 °F 32.0 °F 30.3 in ESE 6 mph 6 mph 63% 0.000 in 0.00 W/m2
01:54 44.0 °F 33.0 °F 30.3 in ESE 3 mph 4 mph 64% 0.000 in 0.00 W/m2
01:59 44.0 °F 33.0 °F 30.3 in ESE 3 mph 4 mph 64% 0.000 in 0.00 W/m2
02:04 44.0 °F 33.0 °F 30.3 in ENE 2 mph 4 mph 64% 0.000 in 0.00 W/m2
02:09 44.0 °F 32.0 °F 30.3 in ENE 2 mph 4 mph 64% 0.000 in 0.00 W/m2
02:14 44.0 °F 32.0 °F 30.3 in ENE 3 mph 3 mph 64% 0.000 in 0.00 W/m2
02:19 43.0 °F 32.0 °F 30.3 in ENE 3 mph 3 mph 65% 0.000 in 0.00 W/m2
02:24 43.0 °F 32.0 °F 30.3 in NE 3 mph 3 mph 65% 0.000 in 0.00 W/m2
02:29 43.0 °F 32.0 °F 30.3 in NE 3 mph 3 mph 66% 0.000 in 0.00 W/m2
02:34 43.0 °F 32.0 °F 30.3 in NE 2 mph 2 mph 66% 0.000 in 0.00 W/m2
02:39 43.0 °F 32.0 °F 30.3 in NE 2 mph 2 mph 66% 0.000 in 0.00 W/m2
02:44 43.0 °F 33.0 °F 30.3 in NE 3 mph 3 mph 67% 0.000 in 0.00 W/m2
02:49 43.0 °F 33.0 °F 30.3 in NNE 3 mph 3 mph 67% 0.000 in 0.00 W/m2
02:54 43.0 °F 33.0 °F 30.3 in NNE 2 mph 3 mph 68% 0.000 in 0.00 W/m2
02:59 43.0 °F 33.0 °F 30.3 in NNE 3 mph 3 mph 68% 0.000 in 0.00 W/m2
03:04 43.0 °F 33.0 °F 30.3 in North 4 mph 4 mph 68% 0.000 in 0.00 W/m2
03:09 43.0 °F 33.0 °F 30.3 in North 3 mph 3 mph 68% 0.000 in 0.00 W/m2
03:14 43.0 °F 33.0 °F 30.3 in North 3 mph 3 mph 68% 0.000 in 0.00 W/m2
03:19 43.0 °F 33.0 °F 30.3 in North 3 mph 3 mph 68% 0.000 in 0.00 W/m2
03:24 43.0 °F 33.0 °F 30.3 in NNE 2 mph 2 mph 68% 0.000 in 0.00 W/m2
03:29 43.0 °F 33.0 °F 30.3 in NNE 3 mph 3 mph 68% 0.000 in 0.00 W/m2
03:34 43.0 °F 33.0 °F 30.3 in NNE 3 mph 4 mph 68% 0.000 in 0.00 W/m2
03:39 43.0 °F 33.0 °F 30.3 in NNE 3 mph 3 mph 68% 0.000 in 0.00 W/m2
03:44 43.0 °F 33.0 °F 30.3 in NNE 6 mph 6 mph 68% 0.000 in 0.00 W/m2
03:49 43.0 °F 33.0 °F 30.3 in NNE 5 mph 6 mph 68% 0.000 in 0.00 W/m2
03:54 43.0 °F 33.0 °F 30.3 in NNE 7 mph 7 mph 68% 0.000 in 0.00 W/m2
03:59 43.0 °F 33.0 °F 30.3 in NE 5 mph 5 mph 67% 0.000 in 0.00 W/m2
04:04 43.0 °F 33.0 °F 30.3 in NNE 7 mph 7 mph 67% 0.000 in 0.00 W/m2
04:09 43.0 °F 33.0 °F 30.3 in NNE 5 mph 6 mph 67% 0.000 in 0.00 W/m2
04:14 43.0 °F 33.0 °F 30.3 in NNE 5 mph 6 mph 67% 0.000 in 0.00 W/m2
04:19 43.0 °F 33.0 °F 30.3 in NNE 4 mph 6 mph 67% 0.000 in 0.00 W/m2
04:24 43.0 °F 33.0 °F 30.3 in NNE 5 mph 6 mph 67% 0.000 in 0.00 W/m2
04:29 43.0 °F 33.0 °F 30.3 in NNE 5 mph 5 mph 67% 0.000 in 0.00 W/m2
04:34 43.0 °F 33.0 °F 30.3 in NNE 4 mph 5 mph 68% 0.000 in 0.00 W/m2
04:39 43.0 °F 33.0 °F 30.3 in NE 4 mph 5 mph 68% 0.000 in 0.00 W/m2
04:44 43.0 °F 33.0 °F 30.3 in NNE 4 mph 5 mph 67% 0.000 in 0.00 W/m2
04:49 43.0 °F 33.0 °F 30.3 in NNE 6 mph 6 mph 67% 0.000 in 0.00 W/m2
04:54 43.0 °F 33.0 °F 30.3 in NE 5 mph 6 mph 67% 0.000 in 0.00 W/m2
04:59 43.0 °F 33.0 °F 30.3 in NE 3 mph 5 mph 67% 0.000 in 0.00 W/m2
05:04 43.0 °F 33.0 °F 30.3 in NE 4 mph 4 mph 67% 0.000 in 0.00 W/m2
05:09 43.0 °F 33.0 °F 30.3 in NNE 4 mph 4 mph 67% 0.000 in 0.00 W/m2
05:14 43.0 °F 33.0 °F 30.3 in NE 5 mph 5 mph 67% 0.000 in 0.00 W/m2
05:19 43.0 °F 33.0 °F 30.3 in NNE 5 mph 5 mph 67% 0.000 in 0.00 W/m2
05:24 43.0 °F 33.0 °F 30.3 in NNE 4 mph 5 mph 67% 0.000 in 0.00 W/m2
05:29 43.0 °F 33.0 °F 30.3 in NNE 3 mph 5 mph 67% 0.000 in 0.00 W/m2
05:34 43.0 °F 33.0 °F 30.3 in NE 4 mph 5 mph 68% 0.000 in 0.00 W/m2
05:39 43.0 °F 33.0 °F 30.3 in NE 5 mph 5 mph 68% 0.000 in 0.00 W/m2
05:44 43.0 °F 33.0 °F 30.3 in NNE 4 mph 4 mph 68% 0.000 in 0.00 W/m2
05:49 43.0 °F 33.0 °F 30.3 in NE 4 mph 5 mph 68% 0.000 in 0.00 W/m2
05:54 42.0 °F 33.0 °F 30.3 in NE 4 mph 4 mph 68% 0.000 in 0.00 W/m2
05:59 42.0 °F 33.0 °F 30.3 in NNE 3 mph 4 mph 68% 0.000 in 0.00 W/m2
06:04 42.0 °F 33.0 °F 30.3 in NE 3 mph 3 mph 68% 0.000 in 0.00 W/m2
06:09 42.0 °F 33.0 °F 30.3 in NE 3 mph 4 mph 68% 0.000 in 0.00 W/m2
06:14 42.0 °F 32.0 °F 30.3 in NE 3 mph 3 mph 68% 0.000 in 0.00 W/m2
06:19 42.0 °F 33.0 °F 30.3 in NE 3 mph 4 mph 69% 0.000 in 0.00 W/m2
06:24 42.0 °F 32.0 °F 30.3 in NNE 3 mph 3 mph 69% 0.000 in 0.00 W/m2
06:29 42.0 °F 32.0 °F 30.3 in NNE 3 mph 4 mph 69% 0.000 in 0.00 W/m2
06:34 42.0 °F 32.0 °F 30.3 in NNE 3 mph 4 mph 69% 0.000 in 0.00 W/m2
06:39 41.0 °F 32.0 °F 30.3 in NNE 2 mph 4 mph 69% 0.000 in 0.00 W/m2
06:44 41.0 °F 32.0 °F 30.3 in NNE 2 mph 2 mph 70% 0.000 in 0.00 W/m2
06:49 41.0 °F 32.0 °F 30.3 in NNE 3 mph 3 mph 70% 0.000 in 0.00 W/m2
06:54 41.0 °F 32.0 °F 30.3 in NNE 2 mph 2 mph 70% 0.000 in 0.00 W/m2
06:59 41.0 °F 32.0 °F 30.3 in NNE 2 mph 2 mph 71% 0.000 in 0.00 W/m2
07:04 41.0 °F 32.0 °F 30.3 in NNE 2 mph 2 mph 71% 0.000 in 0.00 W/m2
07:09 41.0 °F 32.0 °F 30.3 in NNE 2 mph 3 mph 71% 0.000 in 0.00 W/m2
07:14 40.0 °F 32.0 °F 30.3 in NNE 3 mph 3 mph 71% 0.000 in 0.00 W/m2
07:19 40.0 °F 32.0 °F 30.3 in NNE 3 mph 3 mph 72% 0.000 in 5.00 W/m2
07:24 40.0 °F 32.0 °F 30.3 in NNE 2 mph 3 mph 72% 0.000 in 7.00 W/m2
07:29 40.0 °F 32.0 °F 30.3 in NNE 3 mph 3 mph 72% 0.000 in 11.00 W/m2
07:34 40.0 °F 32.0 °F 30.3 in NNE 3 mph 3 mph 72% 0.000 in 14.00 W/m2
07:39 40.0 °F 31.0 °F 30.3 in NNE 3 mph 3 mph 72% 0.000 in 18.00 W/m2
07:44 40.0 °F 32.0 °F 30.3 in NNE 3 mph 3 mph 73% 0.000 in 19.00 W/m2
07:49 40.0 °F 32.0 °F 30.3 in NNE 4 mph 4 mph 73% 0.000 in 23.00 W/m2
07:54 40.0 °F 32.0 °F 30.3 in NNE 5 mph 5 mph 73% 0.000 in 26.00 W/m2
07:59 40.0 °F 32.0 °F 30.3 in NNE 4 mph 4 mph 73% 0.000 in 33.00 W/m2
08:04 40.0 °F 32.0 °F 30.3 in NNE 4 mph 4 mph 73% 0.000 in 49.00 W/m2
08:09 40.0 °F 32.0 °F 30.3 in NNE 5 mph 5 mph 73% 0.000 in 86.00 W/m2
08:14 40.0 °F 32.0 °F 30.3 in North 4 mph 4 mph 73% 0.000 in 114.00 W/m2
08:19 41.0 °F 33.0 °F 30.4 in NNE 4 mph 4 mph 73% 0.000 in 127.00 W/m2
08:24 41.0 °F 33.0 °F 30.4 in NNE 4 mph 4 mph 73% 0.000 in 105.00 W/m2
08:29 41.0 °F 33.0 °F 30.4 in NNE 5 mph 5 mph 72% 0.000 in 113.00 W/m2
08:34 42.0 °F 33.0 °F 30.4 in NE 4 mph 5 mph 72% 0.000 in 151.00 W/m2
08:39 42.0 °F 33.0 °F 30.4 in NE 4 mph 4 mph 71% 0.000 in 151.00 W/m2
08:44 42.0 °F 33.0 °F 30.4 in NE 4 mph 4 mph 70% 0.000 in 125.00 W/m2
08:49 43.0 °F 33.0 °F 30.3 in NE 3 mph 4 mph 70% 0.000 in 125.00 W/m2
08:54 43.0 °F 33.0 °F 30.3 in NNE 5 mph 5 mph 69% 0.000 in 104.00 W/m2
08:59 44.0 °F 34.0 °F 30.3 in NNE 4 mph 5 mph 68% 0.000 in 181.00 W/m2
09:04 44.0 °F 34.0 °F 30.3 in ENE 4 mph 4 mph 68% 0.000 in 211.00 W/m2
09:09 44.0 °F 34.0 °F 30.3 in NE 4 mph 4 mph 68% 0.000 in 327.00 W/m2
09:14 45.0 °F 34.0 °F 30.3 in NE 4 mph 4 mph 67% 0.000 in 329.00 W/m2
09:19 45.0 °F 34.0 °F 30.4 in East 4 mph 4 mph 66% 0.000 in 325.00 W/m2
09:24 46.0 °F 35.0 °F 30.4 in ENE 4 mph 5 mph 66% 0.000 in 301.00 W/m2
09:29 46.0 °F 35.0 °F 30.4 in NNE 4 mph 4 mph 66% 0.000 in 295.00 W/m2
09:34 47.0 °F 35.0 °F 30.4 in NE 4 mph 4 mph 65% 0.000 in 313.00 W/m2
09:39 47.0 °F 35.0 °F 30.4 in NE 2 mph 3 mph 64% 0.000 in 330.00 W/m2
09:44 48.0 °F 35.0 °F 30.4 in NE 4 mph 4 mph 63% 0.000 in 334.00 W/m2
09:49 48.0 °F 35.0 °F 30.4 in ENE 2 mph 3 mph 62% 0.000 in 364.00 W/m2
09:54 48.0 °F 36.0 °F 30.4 in ENE 3 mph 3 mph 62% 0.000 in 464.00 W/m2
09:59 49.0 °F 36.0 °F 30.4 in East 3 mph 3 mph 61% 0.000 in 478.00 W/m2
10:04 50.0 °F 36.0 °F 30.4 in NE 4 mph 4 mph 60% 0.000 in 490.00 W/m2
10:09 50.0 °F 36.0 °F 30.4 in NNE 4 mph 4 mph 59% 0.000 in 503.00 W/m2
10:14 51.0 °F 37.0 °F 30.4 in NNE 4 mph 4 mph 59% 0.000 in 506.00 W/m2
10:19 51.0 °F 37.0 °F 30.4 in NE 4 mph 4 mph 59% 0.000 in 497.00 W/m2
10:24 52.0 °F 36.0 °F 30.4 in East 4 mph 4 mph 56% 0.000 in 475.00 W/m2
10:29 54.0 °F 37.0 °F 30.4 in SE 4 mph 5 mph 55% 0.000 in 555.00 W/m2
10:34 54.0 °F 38.0 °F 30.4 in East 6 mph 6 mph 54% 0.000 in 570.00 W/m2
10:39 54.0 °F 37.0 °F 30.4 in ESE 4 mph 4 mph 52% 0.000 in 578.00 W/m2
10:44 54.0 °F 36.0 °F 30.3 in East 3 mph 4 mph 51% 0.000 in 587.00 W/m2
10:49 54.0 °F 36.0 °F 30.3 in ENE 3 mph 3 mph 51% 0.000 in 596.00 W/m2
10:54 55.0 °F 38.0 °F 30.3 in South 2 mph 3 mph 53% 0.000 in 606.00 W/m2
10:59 56.0 °F 39.0 °F 30.3 in SSE 4 mph 4 mph 52% 0.000 in 615.00 W/m2
11:04 57.0 °F 39.0 °F 30.3 in SE 5 mph 5 mph 52% 0.000 in 624.00 W/m2
11:09 56.0 °F 38.0 °F 30.3 in SE 6 mph 6 mph 50% 0.000 in 631.00 W/m2
11:14 57.0 °F 37.0 °F 30.3 in SE 3 mph 6 mph 48% 0.000 in 642.00 W/m2
11:19 57.0 °F 37.0 °F 30.3 in East 3 mph 3 mph 47% 0.000 in 652.00 W/m2
11:24 57.0 °F 37.0 °F 30.3 in ESE 3 mph 4 mph 47% 0.000 in 659.00 W/m2
11:29 57.0 °F 37.0 °F 30.3 in SE 2 mph 3 mph 47% 0.000 in 664.00 W/m2
11:34 57.0 °F 38.0 °F 30.3 in SSE 4 mph 4 mph 48% 0.000 in 668.00 W/m2
11:39 58.0 °F 37.0 °F 30.3 in East 5 mph 6 mph 46% 0.000 in 668.00 W/m2
11:44 58.0 °F 38.0 °F 30.3 in North 4 mph 6 mph 48% 0.000 in 684.00 W/m2
11:49 58.0 °F 38.0 °F 30.3 in North 7 mph 7 mph 47% 0.000 in 689.00 W/m2
11:54 58.0 °F 38.0 °F 30.3 in North 5 mph 7 mph 47% 0.000 in 689.00 W/m2
11:59 58.0 °F 37.0 °F 30.3 in West 3 mph 3 mph 46% 0.000 in 691.00 W/m2
12:04 58.0 °F 39.0 °F 30.3 in SW 3 mph 3 mph 49% 0.000 in 696.00 W/m2
12:09 58.0 °F 39.0 °F 30.3 in WSW 4 mph 4 mph 49% 0.000 in 700.00 W/m2
12:14 59.0 °F 40.0 °F 30.3 in SW 4 mph 4 mph 49% 0.000 in 701.00 W/m2
12:19 60.0 °F 41.0 °F 30.3 in SE 3 mph 3 mph 50% 0.000 in 705.00 W/m2
12:24 60.0 °F 42.0 °F 30.3 in NE 6 mph 6 mph 50% 0.000 in 710.00 W/m2
12:29 60.0 °F 41.0 °F 30.3 in WNW 4 mph 6 mph 50% 0.000 in 710.00 W/m2
12:34 60.0 °F 42.0 °F 30.3 in North 7 mph 7 mph 51% 0.000 in 710.00 W/m2
12:39 60.0 °F 42.0 °F 30.3 in North 6 mph 6 mph 51% 0.000 in 708.00 W/m2
12:44 60.0 °F 41.0 °F 30.3 in North 6 mph 7 mph 50% 0.000 in 701.00 W/m2
12:49 60.0 °F 42.0 °F 30.3 in ENE 5 mph 7 mph 50% 0.000 in 714.00 W/m2
12:54 61.0 °F 42.0 °F 30.3 in NNW 5 mph 5 mph 50% 0.000 in 715.00 W/m2
12:59 60.0 °F 41.0 °F 30.3 in WNW 5 mph 5 mph 49% 0.000 in 726.00 W/m2
13:04 60.0 °F 41.0 °F 30.3 in West 3 mph 5 mph 49% 0.000 in 726.00 W/m2
13:09 60.0 °F 42.0 °F 30.3 in NNE 6 mph 8 mph 51% 0.000 in 712.00 W/m2
13:14 61.0 °F 42.0 °F 30.3 in NNE 5 mph 8 mph 51% 0.000 in 701.00 W/m2
13:19 61.0 °F 42.0 °F 30.3 in North 8 mph 8 mph 50% 0.000 in 705.00 W/m2
13:24 62.0 °F 43.0 °F 30.3 in NNE 9 mph 10 mph 50% 0.000 in 707.00 W/m2
13:29 62.0 °F 43.0 °F 30.3 in NE 8 mph 10 mph 49% 0.000 in 756.00 W/m2
13:34 62.0 °F 42.0 °F 30.3 in North 6 mph 6 mph 49% 0.000 in 858.00 W/m2
13:39 62.0 °F 43.0 °F 30.3 in NNW 8 mph 8 mph 49% 0.000 in 810.00 W/m2
13:44 62.0 °F 42.0 °F 30.3 in NNW 9 mph 9 mph 48% 0.000 in 784.00 W/m2
13:49 61.0 °F 42.0 °F 30.3 in NW 5 mph 9 mph 48% 0.000 in 499.00 W/m2
13:54 60.0 °F 41.0 °F 30.3 in West 3 mph 4 mph 49% 0.000 in 519.00 W/m2
13:59 61.0 °F 42.0 °F 30.3 in WNW 6 mph 6 mph 49% 0.000 in 508.00 W/m2
14:09 61.0 °F 42.0 °F 30.3 in NW 5 mph 9 mph 50% 0.000 in 367.00 W/m2
14:14 61.0 °F 42.0 °F 30.3 in NNW 5 mph 7 mph 50% 0.000 in 457.00 W/m2
14:19 61.0 °F 42.0 °F 30.3 in North 4 mph 6 mph 50% 0.000 in 390.00 W/m2
14:24 61.0 °F 42.0 °F 30.3 in North 6 mph 6 mph 50% 0.000 in 350.00 W/m2
14:29 62.0 °F 43.0 °F 30.2 in NNE 4 mph 6 mph 50% 0.000 in 812.00 W/m2
14:34 63.0 °F 43.0 °F 30.2 in North 6 mph 7 mph 50% 0.000 in 779.00 W/m2
14:39 62.0 °F 42.0 °F 30.2 in North 6 mph 6 mph 48% 0.000 in 494.00 W/m2
14:44 62.0 °F 43.0 °F 30.2 in NNW 5 mph 8 mph 49% 0.000 in 413.00 W/m2
14:49 62.0 °F 42.0 °F 30.2 in WNW 4 mph 8 mph 48% 0.000 in 404.00 W/m2
14:54 62.0 °F 42.0 °F 30.2 in NW 3 mph 3 mph 49% 0.000 in 404.00 W/m2
14:59 62.0 °F 43.0 °F 30.2 in North 5 mph 5 mph 49% 0.000 in 431.00 W/m2
15:04 62.0 °F 43.0 °F 30.2 in NNE 5 mph 5 mph 49% 0.000 in 396.00 W/m2
15:09 62.0 °F 43.0 °F 30.2 in North 5 mph 9 mph 49% 0.000 in 564.00 W/m2
15:14 62.0 °F 43.0 °F 30.2 in North 6 mph 9 mph 49% 0.000 in 628.00 W/m2
15:19 63.0 °F 44.0 °F 30.2 in North 8 mph 9 mph 49% 0.000 in 613.00 W/m2
15:24 63.0 °F 43.0 °F 30.2 in NNW 9 mph 10 mph 49% 0.000 in 540.00 W/m2
15:29 63.0 °F 43.0 °F 30.2 in NNW 9 mph 10 mph 49% 0.000 in 475.00 W/m2
15:34 63.0 °F 43.0 °F 30.2 in North 8 mph 8 mph 49% 0.000 in 464.00 W/m2
15:39 63.0 °F 44.0 °F 30.2 in North 9 mph 9 mph 50% 0.000 in 439.00 W/m2
15:44 63.0 °F 44.0 °F 30.2 in NNE 9 mph 9 mph 50% 0.000 in 396.00 W/m2
15:49 62.0 °F 43.0 °F 30.2 in NNW 9 mph 10 mph 50% 0.000 in 408.00 W/m2
15:54 62.0 °F 43.0 °F 30.2 in NW 8 mph 10 mph 50% 0.000 in 390.00 W/m2
15:59 62.0 °F 43.0 °F 30.2 in NNW 8 mph 8 mph 51% 0.000 in 371.00 W/m2
16:04 62.0 °F 43.0 °F 30.2 in NNE 5 mph 8 mph 50% 0.000 in 355.00 W/m2
16:09 62.0 °F 43.0 °F 30.2 in NNW 9 mph 9 mph 50% 0.000 in 336.00 W/m2
16:14 62.0 °F 43.0 °F 30.2 in North 11 mph 11 mph 50% 0.000 in 318.00 W/m2
16:19 62.0 °F 42.0 °F 30.2 in NNW 10 mph 11 mph 49% 0.000 in 301.00 W/m2
16:24 61.0 °F 43.0 °F 30.2 in NNE 5 mph 6 mph 50% 0.000 in 285.00 W/m2
16:29 62.0 °F 43.0 °F 30.2 in North 6 mph 6 mph 50% 0.000 in 267.00 W/m2
16:34 62.0 °F 43.0 °F 30.2 in NNW 7 mph 7 mph 50% 0.000 in 209.00 W/m2
16:39 62.0 °F 43.0 °F 30.2 in North 8 mph 9 mph 50% 0.000 in 181.00 W/m2
16:44 61.0 °F 42.0 °F 30.2 in North 6 mph 8 mph 49% 0.000 in 56.00 W/m2
16:49 61.0 °F 42.0 °F 30.2 in NNE 8 mph 9 mph 49% 0.000 in 56.00 W/m2
16:54 61.0 °F 42.0 °F 30.2 in NNE 5 mph 5 mph 50% 0.000 in 49.00 W/m2
16:59 61.0 °F 42.0 °F 30.2 in North 7 mph 8 mph 50% 0.000 in 40.00 W/m2
17:04 61.0 °F 42.0 °F 30.2 in North 5 mph 6 mph 50% 0.000 in 83.00 W/m2
17:09 61.0 °F 42.0 °F 30.2 in NW 5 mph 5 mph 50% 0.000 in 83.00 W/m2
17:14 61.0 °F 42.0 °F 30.2 in NW 4 mph 5 mph 50% 0.000 in 47.00 W/m2
17:19 61.0 °F 42.0 °F 30.2 in NW 5 mph 7 mph 50% 0.000 in 49.00 W/m2
17:24 60.0 °F 42.0 °F 30.3 in NW 4 mph 4 mph 50% 0.000 in 39.00 W/m2
17:29 60.0 °F 42.0 °F 30.2 in NW 4 mph 4 mph 50% 0.000 in 32.00 W/m2
17:34 60.0 °F 42.0 °F 30.2 in NW 3 mph 4 mph 51% 0.000 in 28.00 W/m2
17:39 60.0 °F 42.0 °F 30.2 in NNW 3 mph 3 mph 51% 0.000 in 23.00 W/m2
17:44 60.0 °F 42.0 °F 30.2 in NNW 3 mph 3 mph 52% 0.000 in 14.00 W/m2
17:49 60.0 °F 42.0 °F 30.2 in North 3 mph 3 mph 52% 0.000 in 9.00 W/m2
17:54 60.0 °F 42.0 °F 30.2 in North 2 mph 2 mph 53% 0.000 in 5.00 W/m2
17:59 59.0 °F 42.0 °F 30.3 in North 1 mph 2 mph 53% 0.000 in 0.00 W/m2
18:04 59.0 °F 42.0 °F 30.3 in North 1 mph 1 mph 53% 0.000 in 0.00 W/m2
18:09 59.0 °F 42.0 °F 30.3 in North 1 mph 1 mph 53% 0.000 in 0.00 W/m2
18:14 59.0 °F 42.0 °F 30.3 in North 2 mph 2 mph 54% 0.000 in 0.00 W/m2
18:19 58.0 °F 42.0 °F 30.3 in North 2 mph 2 mph 54% 0.000 in 0.00 W/m2
18:24 58.0 °F 42.0 °F 30.3 in North 1 mph 1 mph 55% 0.000 in 0.00 W/m2
18:29 58.0 °F 42.0 °F 30.3 in North 1 mph 1 mph 55% 0.000 in 0.00 W/m2
18:34 57.0 °F 42.0 °F 30.3 in North 1 mph 2 mph 56% 0.000 in 0.00 W/m2
18:39 57.0 °F 42.0 °F 30.3 in North 2 mph 2 mph 57% 0.000 in 0.00 W/m2
18:44 57.0 °F 42.0 °F 30.3 in North 2 mph 2 mph 58% 0.000 in 0.00 W/m2
18:49 56.0 °F 42.0 °F 30.3 in Calm   2 mph 59% 0.000 in 0.00 W/m2
18:54 56.0 °F 42.0 °F 30.3 in North 1 mph 1 mph 60% 0.000 in 0.00 W/m2
18:59 56.0 °F 42.0 °F 30.3 in North 3 mph 3 mph 60% 0.000 in 0.00 W/m2
19:04 55.0 °F 42.0 °F 30.3 in NNE 8 mph 9 mph 62% 0.000 in 0.00 W/m2
19:09 55.0 °F 42.0 °F 30.3 in NNE 3 mph 4 mph 63% 0.000 in 0.00 W/m2
19:14 54.0 °F 42.0 °F 30.3 in NE 2 mph 2 mph 63% 0.000 in 0.00 W/m2
19:19 54.0 °F 42.0 °F 30.3 in NE 3 mph 3 mph 63% 0.000 in 0.00 W/m2
19:24 54.0 °F 42.0 °F 30.3 in NE 2 mph 3 mph 63% 0.000 in 0.00 W/m2
19:29 54.0 °F 42.0 °F 30.3 in NE 1 mph 1 mph 63% 0.000 in 0.00 W/m2
19:34 54.0 °F 42.0 °F 30.3 in NE 2 mph 2 mph 63% 0.000 in 0.00 W/m2
19:39 54.0 °F 42.0 °F 30.3 in NE 2 mph 2 mph 63% 0.000 in 0.00 W/m2
19:44 54.0 °F 41.0 °F 30.3 in NE 1 mph 2 mph 63% 0.000 in 0.00 W/m2
19:49 53.0 °F 41.0 °F 30.3 in NE 2 mph 2 mph 64% 0.000 in 0.00 W/m2
19:54 53.0 °F 41.0 °F 30.3 in NE 2 mph 2 mph 64% 0.000 in 0.00 W/m2
19:59 53.0 °F 41.0 °F 30.3 in NE 2 mph 2 mph 64% 0.000 in 0.00 W/m2
20:04 53.0 °F 41.0 °F 30.3 in NE 2 mph 2 mph 64% 0.000 in 0.00 W/m2
20:09 53.0 °F 41.0 °F 30.3 in NE 2 mph 2 mph 64% 0.000 in 0.00 W/m2
20:14 53.0 °F 41.0 °F 30.3 in NE 2 mph 2 mph 65% 0.000 in 0.00 W/m2
20:19 53.0 °F 41.0 °F 30.3 in NE 2 mph 2 mph 65% 0.000 in 0.00 W/m2
20:24 53.0 °F 41.0 °F 30.3 in NE 2 mph 3 mph 65% 0.000 in 0.00 W/m2
20:29 52.0 °F 41.0 °F 30.3 in NE 2 mph 3 mph 65% 0.000 in 0.00 W/m2
20:34 52.0 °F 41.0 °F 30.3 in NE 2 mph 2 mph 65% 0.000 in 0.00 W/m2
20:39 52.0 °F 41.0 °F 30.3 in NE 2 mph 2 mph 65% 0.000 in 0.00 W/m2
20:44 52.0 °F 41.0 °F 30.3 in NE 3 mph 3 mph 65% 0.000 in 0.00 W/m2
20:49 52.0 °F 41.0 °F 30.3 in NE 3 mph 3 mph 65% 0.000 in 0.00 W/m2
20:54 52.0 °F 41.0 °F 30.3 in NNE 2 mph 3 mph 66% 0.000 in 0.00 W/m2
20:59 52.0 °F 41.0 °F 30.3 in NNE 3 mph 3 mph 66% 0.000 in 0.00 W/m2
21:04 52.0 °F 41.0 °F 30.3 in NNE 2 mph 3 mph 66% 0.000 in 0.00 W/m2
21:09 52.0 °F 41.0 °F 30.3 in NNE 2 mph 2 mph 66% 0.000 in 0.00 W/m2
21:14 52.0 °F 41.0 °F 30.3 in NNE 2 mph 2 mph 66% 0.000 in 0.00 W/m2
21:19 52.0 °F 41.0 °F 30.3 in NNE 2 mph 2 mph 66% 0.000 in 0.00 W/m2
21:24 52.0 °F 41.0 °F 30.3 in NNE 3 mph 3 mph 66% 0.000 in 0.00 W/m2
21:29 52.0 °F 41.0 °F 30.3 in NNE 3 mph 3 mph 66% 0.000 in 0.00 W/m2
21:34 52.0 °F 41.0 °F 30.3 in NNE 3 mph 3 mph 66% 0.000 in 0.00 W/m2
21:39 52.0 °F 41.0 °F 30.3 in NNE 3 mph 4 mph 66% 0.000 in 0.00 W/m2
21:44 52.0 °F 41.0 °F 30.3 in NNE 4 mph 4 mph 66% 0.000 in 0.00 W/m2
21:49 52.0 °F 41.0 °F 30.3 in NNE 4 mph 4 mph 66% 0.000 in 0.00 W/m2
21:54 52.0 °F 41.0 °F 30.3 in NE 3 mph 3 mph 65% 0.000 in 0.00 W/m2
21:59 52.0 °F 41.0 °F 30.3 in NE 4 mph 4 mph 65% 0.000 in 0.00 W/m2
22:04 52.0 °F 41.0 °F 30.3 in NNE 5 mph 5 mph 65% 0.000 in 0.00 W/m2
22:09 53.0 °F 41.0 °F 30.3 in NE 5 mph 5 mph 64% 0.000 in 0.00 W/m2
22:14 53.0 °F 41.0 °F 30.3 in NE 5 mph 5 mph 63% 0.000 in 0.00 W/m2
22:19 53.0 °F 41.0 °F 30.3 in NE 3 mph 5 mph 63% 0.000 in 0.00 W/m2
22:24 53.0 °F 41.0 °F 30.3 in NE 6 mph 6 mph 63% 0.000 in 0.00 W/m2
22:29 53.0 °F 40.0 °F 30.3 in NE 4 mph 4 mph 62% 0.000 in 0.00 W/m2
22:34 53.0 °F 41.0 °F 30.3 in NE 5 mph 7 mph 62% 0.000 in 0.00 W/m2
22:39 53.0 °F 41.0 °F 30.3 in NE 5 mph 7 mph 62% 0.000 in 0.00 W/m2
22:44 53.0 °F 41.0 °F 30.3 in NNE 8 mph 8 mph 62% 0.000 in 0.00 W/m2
22:49 53.0 °F 41.0 °F 30.3 in ENE 4 mph 5 mph 62% 0.000 in 0.00 W/m2
22:53 53.0 °F 41.0 °F 30.3 in NE 4 mph 5 mph 62% 0.000 in 0.00 W/m2
22:59 53.0 °F 40.0 °F 30.3 in NNE 4 mph 4 mph 62% 0.000 in 0.00 W/m2
23:04 53.0 °F 40.0 °F 30.3 in NE 4 mph 4 mph 62% 0.000 in 0.00 W/m2
23:09 53.0 °F 40.0 °F 30.3 in NE 4 mph 5 mph 62% 0.000 in 0.00 W/m2
23:14 53.0 °F 40.0 °F 30.3 in NE 5 mph 6 mph 62% 0.000 in 0.00 W/m2
23:19 53.0 °F 40.0 °F 30.3 in NE 5 mph 6 mph 62% 0.000 in 0.00 W/m2
23:24 53.0 °F 40.0 °F 30.3 in NNE 5 mph 5 mph 62% 0.000 in 0.00 W/m2
23:29 52.0 °F 40.0 °F 30.3 in NNE 6 mph 6 mph 62% 0.000 in 0.00 W/m2
23:34 52.0 °F 40.0 °F 30.3 in NNE 4 mph 6 mph 62% 0.000 in 0.00 W/m2
23:39 52.0 °F 40.0 °F 30.3 in NNE 5 mph 6 mph 62% 0.000 in 0.00 W/m2
23:44 52.0 °F 40.0 °F 30.3 in NNE 9 mph 9 mph 62% 0.000 in 0.00 W/m2
23:49 52.0 °F 40.0 °F 30.3 in NNE 11 mph 11 mph 62% 0.000 in 0.00 W/m2
23:54 52.0 °F 39.0 °F 30.3 in NNE 13 mph 13 mph 62% 0.000 in 0.00 W/m2
23:59 52.0 °F 39.0 °F 30.3 in NNE 6 mph 9 mph 61% 0.000 in 0.00 W/m2
Villages of Bridgestone, Spring, TX USA
Compliments of Weather Underground - 4 mb